sensor_id;sensor_type;location;lat;lon;timestamp;P1;durP1;ratioP1;P2;durP2;ratioP2
17451;SDS011;8843;48.838;9.324;2023-06-14T00:01:01;3.83;;;3.53;;
17451;SDS011;8843;48.838;9.324;2023-06-14T00:03:31;4.33;;;3.60;;
17451;SDS011;8843;48.838;9.324;2023-06-14T00:05:58;3.63;;;3.10;;
17451;SDS011;8843;48.838;9.324;2023-06-14T00:08:25;4.27;;;3.60;;
17451;SDS011;8843;48.838;9.324;2023-06-14T00:10:52;4.20;;;3.57;;
17451;SDS011;8843;48.838;9.324;2023-06-14T00:13:20;3.87;;;3.53;;
17451;SDS011;8843;48.838;9.324;2023-06-14T00:15:47;6.57;;;4.17;;
17451;SDS011;8843;48.838;9.324;2023-06-14T00:18:14;4.67;;;3.43;;
17451;SDS011;8843;48.838;9.324;2023-06-14T00:20:41;4.67;;;3.27;;
17451;SDS011;8843;48.838;9.324;2023-06-14T00:23:08;4.90;;;3.20;;
17451;SDS011;8843;48.838;9.324;2023-06-14T00:25:35;3.87;;;3.27;;
17451;SDS011;8843;48.838;9.324;2023-06-14T00:28:02;3.80;;;3.40;;
17451;SDS011;8843;48.838;9.324;2023-06-14T00:30:30;4.20;;;3.70;;
17451;SDS011;8843;48.838;9.324;2023-06-14T00:32:57;6.67;;;3.87;;
17451;SDS011;8843;48.838;9.324;2023-06-14T00:35:24;3.67;;;3.10;;
17451;SDS011;8843;48.838;9.324;2023-06-14T00:37:52;3.37;;;3.07;;
17451;SDS011;8843;48.838;9.324;2023-06-14T00:40:19;5.17;;;3.77;;
17451;SDS011;8843;48.838;9.324;2023-06-14T00:42:46;4.50;;;3.37;;
17451;SDS011;8843;48.838;9.324;2023-06-14T00:45:13;3.80;;;3.40;;
17451;SDS011;8843;48.838;9.324;2023-06-14T00:47:42;7.17;;;4.03;;
17451;SDS011;8843;48.838;9.324;2023-06-14T00:50:12;4.87;;;3.50;;
17451;SDS011;8843;48.838;9.324;2023-06-14T00:52:39;7.37;;;3.90;;
17451;SDS011;8843;48.838;9.324;2023-06-14T00:55:06;4.00;;;3.37;;
17451;SDS011;8843;48.838;9.324;2023-06-14T00:57:33;4.03;;;3.40;;
17451;SDS011;8843;48.838;9.324;2023-06-14T01:00:02;4.60;;;3.27;;
17451;SDS011;8843;48.838;9.324;2023-06-14T01:02:33;4.73;;;3.53;;
17451;SDS011;8843;48.838;9.324;2023-06-14T01:05:03;6.03;;;4.00;;
17451;SDS011;8843;48.838;9.324;2023-06-14T01:07:33;4.43;;;3.00;;
17451;SDS011;8843;48.838;9.324;2023-06-14T01:10:15;3.97;;;3.30;;
17451;SDS011;8843;48.838;9.324;2023-06-14T01:12:58;4.17;;;3.20;;
17451;SDS011;8843;48.838;9.324;2023-06-14T01:15:30;5.10;;;3.80;;
17451;SDS011;8843;48.838;9.324;2023-06-14T01:17:57;3.87;;;3.50;;
17451;SDS011;8843;48.838;9.324;2023-06-14T01:20:29;4.30;;;3.23;;
17451;SDS011;8843;48.838;9.324;2023-06-14T01:23:02;5.07;;;3.37;;
17451;SDS011;8843;48.838;9.324;2023-06-14T01:25:29;4.10;;;3.57;;
17451;SDS011;8843;48.838;9.324;2023-06-14T01:27:57;3.77;;;3.33;;
17451;SDS011;8843;48.838;9.324;2023-06-14T01:30:26;4.73;;;3.53;;
17451;SDS011;8843;48.838;9.324;2023-06-14T01:32:54;3.67;;;3.20;;
17451;SDS011;8843;48.838;9.324;2023-06-14T01:35:22;4.10;;;3.20;;
17451;SDS011;8843;48.838;9.324;2023-06-14T01:37:49;3.83;;;3.50;;
17451;SDS011;8843;48.838;9.324;2023-06-14T01:40:18;3.53;;;3.23;;
17451;SDS011;8843;48.838;9.324;2023-06-14T01:42:47;3.93;;;3.20;;
17451;SDS011;8843;48.838;9.324;2023-06-14T01:45:16;3.73;;;3.20;;
17451;SDS011;8843;48.838;9.324;2023-06-14T01:47:44;6.10;;;3.40;;
17451;SDS011;8843;48.838;9.324;2023-06-14T01:50:12;6.67;;;3.60;;
17451;SDS011;8843;48.838;9.324;2023-06-14T01:52:39;3.70;;;3.40;;
17451;SDS011;8843;48.838;9.324;2023-06-14T01:55:06;6.43;;;4.20;;
17451;SDS011;8843;48.838;9.324;2023-06-14T01:57:35;5.53;;;3.27;;
17451;SDS011;8843;48.838;9.324;2023-06-14T02:00:02;3.63;;;3.20;;
17451;SDS011;8843;48.838;9.324;2023-06-14T02:02:31;3.77;;;3.30;;
17451;SDS011;8843;48.838;9.324;2023-06-14T02:04:58;3.40;;;3.10;;
17451;SDS011;8843;48.838;9.324;2023-06-14T02:07:24;3.57;;;3.27;;
17451;SDS011;8843;48.838;9.324;2023-06-14T02:09:51;3.93;;;3.40;;
17451;SDS011;8843;48.838;9.324;2023-06-14T02:12:18;4.07;;;3.47;;
17451;SDS011;8843;48.838;9.324;2023-06-14T02:14:46;3.50;;;3.20;;
17451;SDS011;8843;48.838;9.324;2023-06-14T02:17:13;4.73;;;3.60;;
17451;SDS011;8843;48.838;9.324;2023-06-14T02:19:41;4.77;;;3.47;;
17451;SDS011;8843;48.838;9.324;2023-06-14T02:22:08;5.50;;;3.47;;
17451;SDS011;8843;48.838;9.324;2023-06-14T02:24:35;4.03;;;3.23;;
17451;SDS011;8843;48.838;9.324;2023-06-14T02:27:02;3.73;;;3.33;;
17451;SDS011;8843;48.838;9.324;2023-06-14T02:29:29;4.57;;;3.37;;
17451;SDS011;8843;48.838;9.324;2023-06-14T02:31:57;5.30;;;3.60;;
17451;SDS011;8843;48.838;9.324;2023-06-14T02:34:24;4.50;;;3.60;;
17451;SDS011;8843;48.838;9.324;2023-06-14T02:36:51;3.73;;;3.30;;
17451;SDS011;8843;48.838;9.324;2023-06-14T02:39:18;4.27;;;3.60;;
17451;SDS011;8843;48.838;9.324;2023-06-14T02:41:48;5.37;;;3.57;;
17451;SDS011;8843;48.838;9.324;2023-06-14T02:44:15;3.83;;;3.43;;
17451;SDS011;8843;48.838;9.324;2023-06-14T02:46:44;4.03;;;3.47;;
17451;SDS011;8843;48.838;9.324;2023-06-14T02:49:12;4.83;;;3.67;;
17451;SDS011;8843;48.838;9.324;2023-06-14T02:51:39;3.93;;;3.53;;
17451;SDS011;8843;48.838;9.324;2023-06-14T02:54:06;3.70;;;3.40;;
17451;SDS011;8843;48.838;9.324;2023-06-14T02:56:33;4.13;;;3.70;;
17451;SDS011;8843;48.838;9.324;2023-06-14T02:59:01;5.13;;;3.67;;
17451;SDS011;8843;48.838;9.324;2023-06-14T03:01:27;3.67;;;3.37;;
17451;SDS011;8843;48.838;9.324;2023-06-14T03:03:59;4.37;;;3.80;;
17451;SDS011;8843;48.838;9.324;2023-06-14T03:06:27;3.73;;;3.43;;
17451;SDS011;8843;48.838;9.324;2023-06-14T03:08:55;5.40;;;3.53;;
17451;SDS011;8843;48.838;9.324;2023-06-14T03:11:24;4.23;;;3.50;;
17451;SDS011;8843;48.838;9.324;2023-06-14T03:13:51;3.87;;;3.57;;
17451;SDS011;8843;48.838;9.324;2023-06-14T03:16:18;4.57;;;3.47;;
17451;SDS011;8843;48.838;9.324;2023-06-14T03:18:48;3.87;;;3.53;;
17451;SDS011;8843;48.838;9.324;2023-06-14T03:21:15;3.70;;;3.33;;
17451;SDS011;8843;48.838;9.324;2023-06-14T03:23:43;6.77;;;4.13;;
17451;SDS011;8843;48.838;9.324;2023-06-14T03:26:10;4.67;;;4.00;;
17451;SDS011;8843;48.838;9.324;2023-06-14T03:28:40;4.20;;;3.80;;
17451;SDS011;8843;48.838;9.324;2023-06-14T03:31:06;4.33;;;3.27;;
17451;SDS011;8843;48.838;9.324;2023-06-14T03:33:34;3.53;;;3.23;;
17451;SDS011;8843;48.838;9.324;2023-06-14T03:36:01;4.13;;;3.40;;
17451;SDS011;8843;48.838;9.324;2023-06-14T03:38:28;3.70;;;3.40;;
17451;SDS011;8843;48.838;9.324;2023-06-14T03:40:57;5.03;;;3.67;;
17451;SDS011;8843;48.838;9.324;2023-06-14T03:43:23;6.13;;;3.67;;
17451;SDS011;8843;48.838;9.324;2023-06-14T03:45:51;8.90;;;4.00;;
17451;SDS011;8843;48.838;9.324;2023-06-14T03:48:17;5.43;;;3.80;;
17451;SDS011;8843;48.838;9.324;2023-06-14T03:50:44;4.47;;;3.73;;
17451;SDS011;8843;48.838;9.324;2023-06-14T03:53:12;5.30;;;4.17;;
17451;SDS011;8843;48.838;9.324;2023-06-14T03:55:39;5.90;;;4.10;;
17451;SDS011;8843;48.838;9.324;2023-06-14T03:58:07;4.43;;;3.40;;
17451;SDS011;8843;48.838;9.324;2023-06-14T04:00:34;4.13;;;3.40;;
17451;SDS011;8843;48.838;9.324;2023-06-14T04:03:02;5.73;;;3.77;;
17451;SDS011;8843;48.838;9.324;2023-06-14T04:05:30;5.57;;;3.80;;
17451;SDS011;8843;48.838;9.324;2023-06-14T04:07:56;7.20;;;4.10;;
17451;SDS011;8843;48.838;9.324;2023-06-14T04:10:23;5.30;;;4.03;;
17451;SDS011;8843;48.838;9.324;2023-06-14T04:12:50;4.63;;;4.00;;
17451;SDS011;8843;48.838;9.324;2023-06-14T04:15:19;4.70;;;4.20;;
17451;SDS011;8843;48.838;9.324;2023-06-14T04:17:46;4.37;;;3.77;;
17451;SDS011;8843;48.838;9.324;2023-06-14T04:20:12;4.63;;;3.90;;
17451;SDS011;8843;48.838;9.324;2023-06-14T04:22:39;4.47;;;3.70;;
17451;SDS011;8843;48.838;9.324;2023-06-14T04:25:08;4.13;;;3.47;;
17451;SDS011;8843;48.838;9.324;2023-06-14T04:27:35;5.10;;;4.00;;
17451;SDS011;8843;48.838;9.324;2023-06-14T04:30:02;4.77;;;3.30;;
17451;SDS011;8843;48.838;9.324;2023-06-14T04:32:31;4.00;;;3.57;;
17451;SDS011;8843;48.838;9.324;2023-06-14T04:34:58;4.63;;;3.77;;
17451;SDS011;8843;48.838;9.324;2023-06-14T04:37:27;4.90;;;3.77;;
17451;SDS011;8843;48.838;9.324;2023-06-14T04:39:54;4.27;;;3.87;;
17451;SDS011;8843;48.838;9.324;2023-06-14T04:42:21;5.47;;;3.63;;
17451;SDS011;8843;48.838;9.324;2023-06-14T04:44:56;5.90;;;4.70;;
17451;SDS011;8843;48.838;9.324;2023-06-14T04:47:23;4.87;;;3.87;;
17451;SDS011;8843;48.838;9.324;2023-06-14T04:49:56;4.67;;;3.90;;
17451;SDS011;8843;48.838;9.324;2023-06-14T04:52:25;6.00;;;3.50;;
17451;SDS011;8843;48.838;9.324;2023-06-14T04:54:54;6.63;;;4.40;;
17451;SDS011;8843;48.838;9.324;2023-06-14T04:57:22;5.87;;;4.80;;
17451;SDS011;8843;48.838;9.324;2023-06-14T04:59:50;4.40;;;4.00;;
17451;SDS011;8843;48.838;9.324;2023-06-14T05:02:19;5.00;;;3.87;;
17451;SDS011;8843;48.838;9.324;2023-06-14T05:04:47;4.30;;;3.90;;
17451;SDS011;8843;48.838;9.324;2023-06-14T05:07:15;5.83;;;4.37;;
17451;SDS011;8843;48.838;9.324;2023-06-14T05:09:42;5.20;;;4.40;;
17451;SDS011;8843;48.838;9.324;2023-06-14T05:12:10;5.30;;;4.80;;
17451;SDS011;8843;48.838;9.324;2023-06-14T05:14:37;8.03;;;4.03;;
17451;SDS011;8843;48.838;9.324;2023-06-14T05:17:04;6.20;;;4.17;;
17451;SDS011;8843;48.838;9.324;2023-06-14T05:19:31;4.40;;;4.00;;
17451;SDS011;8843;48.838;9.324;2023-06-14T05:21:58;5.20;;;4.70;;
17451;SDS011;8843;48.838;9.324;2023-06-14T05:24:27;4.37;;;3.97;;
17451;SDS011;8843;48.838;9.324;2023-06-14T05:26:55;5.67;;;4.00;;
17451;SDS011;8843;48.838;9.324;2023-06-14T05:29:22;5.57;;;3.97;;
17451;SDS011;8843;48.838;9.324;2023-06-14T05:31:49;5.83;;;4.27;;
17451;SDS011;8843;48.838;9.324;2023-06-14T05:34:16;4.10;;;3.70;;
17451;SDS011;8843;48.838;9.324;2023-06-14T05:36:42;5.63;;;4.00;;
17451;SDS011;8843;48.838;9.324;2023-06-14T05:39:10;4.83;;;4.03;;
17451;SDS011;8843;48.838;9.324;2023-06-14T05:41:38;7.83;;;4.53;;
17451;SDS011;8843;48.838;9.324;2023-06-14T05:44:05;7.73;;;4.13;;
17451;SDS011;8843;48.838;9.324;2023-06-14T05:46:32;6.50;;;4.67;;
17451;SDS011;8843;48.838;9.324;2023-06-14T05:48:59;7.33;;;5.00;;
17451;SDS011;8843;48.838;9.324;2023-06-14T05:51:26;7.07;;;5.03;;
17451;SDS011;8843;48.838;9.324;2023-06-14T05:53:53;5.60;;;4.87;;
17451;SDS011;8843;48.838;9.324;2023-06-14T05:56:21;6.80;;;4.50;;
17451;SDS011;8843;48.838;9.324;2023-06-14T05:58:49;9.07;;;5.03;;
17451;SDS011;8843;48.838;9.324;2023-06-14T06:01:16;5.33;;;4.67;;
17451;SDS011;8843;48.838;9.324;2023-06-14T06:03:43;6.60;;;5.23;;
17451;SDS011;8843;48.838;9.324;2023-06-14T06:06:12;5.93;;;4.83;;
17451;SDS011;8843;48.838;9.324;2023-06-14T06:08:40;9.27;;;5.17;;
17451;SDS011;8843;48.838;9.324;2023-06-14T06:11:07;5.90;;;5.10;;
17451;SDS011;8843;48.838;9.324;2023-06-14T06:13:34;5.43;;;4.60;;
17451;SDS011;8843;48.838;9.324;2023-06-14T06:16:03;7.60;;;4.73;;
17451;SDS011;8843;48.838;9.324;2023-06-14T06:18:30;5.10;;;4.60;;
17451;SDS011;8843;48.838;9.324;2023-06-14T06:20:57;8.10;;;5.33;;
17451;SDS011;8843;48.838;9.324;2023-06-14T06:23:24;8.33;;;4.47;;
17451;SDS011;8843;48.838;9.324;2023-06-14T06:25:51;10.10;;;4.80;;
17451;SDS011;8843;48.838;9.324;2023-06-14T06:28:18;5.47;;;4.83;;
17451;SDS011;8843;48.838;9.324;2023-06-14T06:30:45;7.73;;;4.60;;
17451;SDS011;8843;48.838;9.324;2023-06-14T06:33:13;5.23;;;4.43;;
17451;SDS011;8843;48.838;9.324;2023-06-14T06:35:40;6.60;;;4.60;;
17451;SDS011;8843;48.838;9.324;2023-06-14T06:38:08;5.90;;;4.80;;
17451;SDS011;8843;48.838;9.324;2023-06-14T06:40:35;4.83;;;4.33;;
17451;SDS011;8843;48.838;9.324;2023-06-14T06:43:02;6.40;;;4.70;;
17451;SDS011;8843;48.838;9.324;2023-06-14T06:45:29;5.77;;;4.73;;
17451;SDS011;8843;48.838;9.324;2023-06-14T06:47:56;8.63;;;4.40;;
17451;SDS011;8843;48.838;9.324;2023-06-14T06:50:24;7.23;;;5.20;;
17451;SDS011;8843;48.838;9.324;2023-06-14T06:52:51;5.90;;;3.83;;
17451;SDS011;8843;48.838;9.324;2023-06-14T06:55:18;4.83;;;3.80;;
17451;SDS011;8843;48.838;9.324;2023-06-14T06:57:45;8.07;;;3.70;;
17451;SDS011;8843;48.838;9.324;2023-06-14T07:00:12;4.50;;;3.40;;
17451;SDS011;8843;48.838;9.324;2023-06-14T07:02:39;5.67;;;4.03;;
17451;SDS011;8843;48.838;9.324;2023-06-14T07:05:06;6.33;;;4.20;;
17451;SDS011;8843;48.838;9.324;2023-06-14T07:07:34;9.33;;;3.87;;
17451;SDS011;8843;48.838;9.324;2023-06-14T07:10:01;5.97;;;4.00;;
17451;SDS011;8843;48.838;9.324;2023-06-14T07:12:30;6.90;;;4.43;;
17451;SDS011;8843;48.838;9.324;2023-06-14T07:14:58;7.07;;;4.13;;
17451;SDS011;8843;48.838;9.324;2023-06-14T07:17:26;7.03;;;4.47;;
17451;SDS011;8843;48.838;9.324;2023-06-14T07:19:52;4.73;;;4.00;;
17451;SDS011;8843;48.838;9.324;2023-06-14T07:22:19;4.27;;;3.87;;
17451;SDS011;8843;48.838;9.324;2023-06-14T07:24:48;4.87;;;3.80;;
17451;SDS011;8843;48.838;9.324;2023-06-14T07:27:14;6.27;;;4.00;;
17451;SDS011;8843;48.838;9.324;2023-06-14T07:29:41;6.60;;;3.83;;
17451;SDS011;8843;48.838;9.324;2023-06-14T07:32:08;4.57;;;4.17;;
17451;SDS011;8843;48.838;9.324;2023-06-14T07:34:35;4.17;;;3.77;;
17451;SDS011;8843;48.838;9.324;2023-06-14T07:37:02;6.23;;;3.90;;
17451;SDS011;8843;48.838;9.324;2023-06-14T07:39:29;4.93;;;3.90;;
17451;SDS011;8843;48.838;9.324;2023-06-14T07:41:57;5.00;;;4.30;;
17451;SDS011;8843;48.838;9.324;2023-06-14T07:44:24;5.03;;;4.07;;
17451;SDS011;8843;48.838;9.324;2023-06-14T07:46:52;5.83;;;4.20;;
17451;SDS011;8843;48.838;9.324;2023-06-14T07:49:19;6.00;;;4.00;;
17451;SDS011;8843;48.838;9.324;2023-06-14T07:51:45;4.57;;;4.07;;
17451;SDS011;8843;48.838;9.324;2023-06-14T07:54:13;8.33;;;4.23;;
17451;SDS011;8843;48.838;9.324;2023-06-14T07:56:40;5.27;;;3.90;;
17451;SDS011;8843;48.838;9.324;2023-06-14T07:59:09;7.30;;;3.90;;
17451;SDS011;8843;48.838;9.324;2023-06-14T08:01:36;4.00;;;3.60;;
17451;SDS011;8843;48.838;9.324;2023-06-14T08:04:04;5.47;;;3.67;;
17451;SDS011;8843;48.838;9.324;2023-06-14T08:06:31;6.13;;;3.90;;
17451;SDS011;8843;48.838;9.324;2023-06-14T08:08:59;4.20;;;3.80;;
17451;SDS011;8843;48.838;9.324;2023-06-14T08:11:26;9.07;;;4.00;;
17451;SDS011;8843;48.838;9.324;2023-06-14T08:13:52;4.30;;;3.90;;
17451;SDS011;8843;48.838;9.324;2023-06-14T08:16:21;7.50;;;4.00;;
17451;SDS011;8843;48.838;9.324;2023-06-14T08:18:48;5.77;;;3.73;;
17451;SDS011;8843;48.838;9.324;2023-06-14T08:21:15;4.87;;;3.80;;
17451;SDS011;8843;48.838;9.324;2023-06-14T08:23:43;5.50;;;3.40;;
17451;SDS011;8843;48.838;9.324;2023-06-14T08:26:10;5.70;;;3.80;;
17451;SDS011;8843;48.838;9.324;2023-06-14T08:28:37;4.30;;;3.90;;
17451;SDS011;8843;48.838;9.324;2023-06-14T08:31:03;4.43;;;3.83;;
17451;SDS011;8843;48.838;9.324;2023-06-14T08:33:32;4.53;;;3.77;;
17451;SDS011;8843;48.838;9.324;2023-06-14T08:35:59;5.50;;;4.07;;
17451;SDS011;8843;48.838;9.324;2023-06-14T08:38:26;6.07;;;3.33;;
17451;SDS011;8843;48.838;9.324;2023-06-14T08:40:53;3.83;;;3.40;;
17451;SDS011;8843;48.838;9.324;2023-06-14T08:43:24;6.60;;;4.27;;
17451;SDS011;8843;48.838;9.324;2023-06-14T08:45:52;4.73;;;3.70;;
17451;SDS011;8843;48.838;9.324;2023-06-14T08:48:24;4.47;;;3.60;;
17451;SDS011;8843;48.838;9.324;2023-06-14T08:50:55;4.10;;;3.70;;
17451;SDS011;8843;48.838;9.324;2023-06-14T08:53:26;6.10;;;3.63;;
17451;SDS011;8843;48.838;9.324;2023-06-14T08:55:57;4.73;;;4.30;;
17451;SDS011;8843;48.838;9.324;2023-06-14T08:58:25;3.97;;;3.53;;
17451;SDS011;8843;48.838;9.324;2023-06-14T09:00:54;8.33;;;3.90;;
17451;SDS011;8843;48.838;9.324;2023-06-14T09:03:21;4.20;;;3.80;;
17451;SDS011;8843;48.838;9.324;2023-06-14T09:05:56;4.50;;;3.30;;
17451;SDS011;8843;48.838;9.324;2023-06-14T09:08:24;3.80;;;3.47;;
17451;SDS011;8843;48.838;9.324;2023-06-14T09:10:51;5.00;;;3.03;;
17451;SDS011;8843;48.838;9.324;2023-06-14T09:13:18;7.43;;;4.20;;
17451;SDS011;8843;48.838;9.324;2023-06-14T09:15:45;5.70;;;4.13;;
17451;SDS011;8843;48.838;9.324;2023-06-14T09:18:12;4.20;;;3.40;;
17451;SDS011;8843;48.838;9.324;2023-06-14T09:20:39;5.17;;;3.37;;
17451;SDS011;8843;48.838;9.324;2023-06-14T09:23:08;4.57;;;3.33;;
17451;SDS011;8843;48.838;9.324;2023-06-14T09:25:42;4.37;;;3.87;;
17451;SDS011;8843;48.838;9.324;2023-06-14T09:28:09;4.03;;;3.60;;
17451;SDS011;8843;48.838;9.324;2023-06-14T09:30:36;6.93;;;3.60;;
17451;SDS011;8843;48.838;9.324;2023-06-14T09:33:03;3.57;;;3.20;;
17451;SDS011;8843;48.838;9.324;2023-06-14T09:35:30;6.73;;;3.70;;
17451;SDS011;8843;48.838;9.324;2023-06-14T09:37:58;4.10;;;3.67;;
17451;SDS011;8843;48.838;9.324;2023-06-14T09:40:26;4.53;;;3.47;;
17451;SDS011;8843;48.838;9.324;2023-06-14T09:42:53;5.37;;;3.67;;
17451;SDS011;8843;48.838;9.324;2023-06-14T09:45:22;3.70;;;3.40;;
17451;SDS011;8843;48.838;9.324;2023-06-14T09:47:50;3.70;;;3.40;;
17451;SDS011;8843;48.838;9.324;2023-06-14T09:50:17;5.50;;;3.63;;
17451;SDS011;8843;48.838;9.324;2023-06-14T09:52:44;5.53;;;3.60;;
17451;SDS011;8843;48.838;9.324;2023-06-14T09:55:13;7.07;;;3.50;;
17451;SDS011;8843;48.838;9.324;2023-06-14T09:57:43;5.03;;;3.43;;
17451;SDS011;8843;48.838;9.324;2023-06-14T10:00:14;3.37;;;3.07;;
17451;SDS011;8843;48.838;9.324;2023-06-14T10:02:43;6.03;;;3.77;;
17451;SDS011;8843;48.838;9.324;2023-06-14T10:05:16;5.50;;;3.67;;
17451;SDS011;8843;48.838;9.324;2023-06-14T10:07:48;14.90;;;3.70;;
17451;SDS011;8843;48.838;9.324;2023-06-14T10:10:18;3.20;;;3.00;;
17451;SDS011;8843;48.838;9.324;2023-06-14T10:12:47;4.63;;;3.83;;
17451;SDS011;8843;48.838;9.324;2023-06-14T10:15:15;3.27;;;2.97;;
17451;SDS011;8843;48.838;9.324;2023-06-14T10:17:46;4.80;;;3.27;;
17451;SDS011;8843;48.838;9.324;2023-06-14T10:20:21;5.00;;;3.30;;
17451;SDS011;8843;48.838;9.324;2023-06-14T10:22:55;4.73;;;3.53;;
17451;SDS011;8843;48.838;9.324;2023-06-14T10:25:26;5.10;;;3.10;;
17451;SDS011;8843;48.838;9.324;2023-06-14T10:28:03;6.53;;;3.40;;
17451;SDS011;8843;48.838;9.324;2023-06-14T10:30:41;5.27;;;3.40;;
17451;SDS011;8843;48.838;9.324;2023-06-14T10:33:29;6.13;;;3.40;;
17451;SDS011;8843;48.838;9.324;2023-06-14T10:36:06;5.80;;;3.40;;
17451;SDS011;8843;48.838;9.324;2023-06-14T10:38:56;3.87;;;3.40;;
17451;SDS011;8843;48.838;9.324;2023-06-14T10:41:24;5.43;;;3.50;;
17451;SDS011;8843;48.838;9.324;2023-06-14T10:43:53;5.27;;;3.20;;
17451;SDS011;8843;48.838;9.324;2023-06-14T10:46:52;4.30;;;3.27;;
17451;SDS011;8843;48.838;9.324;2023-06-14T10:49:19;5.07;;;3.20;;
17451;SDS011;8843;48.838;9.324;2023-06-14T10:52:03;7.97;;;3.40;;
17451;SDS011;8843;48.838;9.324;2023-06-14T10:54:31;5.43;;;2.90;;
17451;SDS011;8843;48.838;9.324;2023-06-14T10:56:58;4.90;;;3.30;;
17451;SDS011;8843;48.838;9.324;2023-06-14T10:59:26;3.53;;;3.23;;
17451;SDS011;8843;48.838;9.324;2023-06-14T11:01:56;4.23;;;3.37;;
17451;SDS011;8843;48.838;9.324;2023-06-14T11:04:28;5.33;;;3.10;;
17451;SDS011;8843;48.838;9.324;2023-06-14T11:07:04;4.20;;;3.00;;
17451;SDS011;8843;48.838;9.324;2023-06-14T11:09:56;8.17;;;3.40;;
17451;SDS011;8843;48.838;9.324;2023-06-14T11:12:36;5.13;;;3.30;;
17451;SDS011;8843;48.838;9.324;2023-06-14T11:15:09;5.80;;;3.40;;
17451;SDS011;8843;48.838;9.324;2023-06-14T11:17:35;5.53;;;3.10;;
17451;SDS011;8843;48.838;9.324;2023-06-14T11:20:08;4.07;;;3.57;;
17451;SDS011;8843;48.838;9.324;2023-06-14T11:22:39;4.73;;;3.60;;
17451;SDS011;8843;48.838;9.324;2023-06-14T11:25:08;4.80;;;3.43;;
17451;SDS011;8843;48.838;9.324;2023-06-14T11:27:36;3.60;;;3.03;;
17451;SDS011;8843;48.838;9.324;2023-06-14T11:30:03;5.47;;;3.47;;
17451;SDS011;8843;48.838;9.324;2023-06-14T11:32:34;8.80;;;3.97;;
17451;SDS011;8843;48.838;9.324;2023-06-14T11:35:01;3.40;;;3.03;;
17451;SDS011;8843;48.838;9.324;2023-06-14T11:37:29;4.33;;;3.30;;
17451;SDS011;8843;48.838;9.324;2023-06-14T11:39:58;7.83;;;3.00;;
17451;SDS011;8843;48.838;9.324;2023-06-14T11:42:26;4.07;;;3.43;;
17451;SDS011;8843;48.838;9.324;2023-06-14T11:44:53;4.93;;;3.33;;
17451;SDS011;8843;48.838;9.324;2023-06-14T11:47:20;3.40;;;3.10;;
17451;SDS011;8843;48.838;9.324;2023-06-14T11:49:48;4.87;;;3.20;;
17451;SDS011;8843;48.838;9.324;2023-06-14T11:52:16;6.33;;;3.27;;
17451;SDS011;8843;48.838;9.324;2023-06-14T11:54:44;6.10;;;3.53;;
17451;SDS011;8843;48.838;9.324;2023-06-14T11:57:14;4.77;;;3.40;;
17451;SDS011;8843;48.838;9.324;2023-06-14T11:59:41;4.73;;;3.17;;
17451;SDS011;8843;48.838;9.324;2023-06-14T12:02:09;5.70;;;3.90;;
17451;SDS011;8843;48.838;9.324;2023-06-14T12:04:40;3.43;;;3.13;;
17451;SDS011;8843;48.838;9.324;2023-06-14T12:07:12;5.60;;;3.27;;
17451;SDS011;8843;48.838;9.324;2023-06-14T12:09:40;3.30;;;2.97;;
17451;SDS011;8843;48.838;9.324;2023-06-14T12:12:09;3.77;;;3.20;;
17451;SDS011;8843;48.838;9.324;2023-06-14T12:14:36;5.37;;;3.60;;
17451;SDS011;8843;48.838;9.324;2023-06-14T12:17:03;5.67;;;3.33;;
17451;SDS011;8843;48.838;9.324;2023-06-14T12:19:32;4.20;;;2.97;;
17451;SDS011;8843;48.838;9.324;2023-06-14T12:21:59;4.90;;;3.53;;
17451;SDS011;8843;48.838;9.324;2023-06-14T12:24:31;5.00;;;3.80;;
17451;SDS011;8843;48.838;9.324;2023-06-14T12:26:58;4.97;;;3.07;;
17451;SDS011;8843;48.838;9.324;2023-06-14T12:29:28;3.23;;;2.93;;
17451;SDS011;8843;48.838;9.324;2023-06-14T12:31:55;3.57;;;3.27;;
17451;SDS011;8843;48.838;9.324;2023-06-14T12:34:22;5.23;;;3.30;;
17451;SDS011;8843;48.838;9.324;2023-06-14T12:36:49;3.63;;;3.30;;
17451;SDS011;8843;48.838;9.324;2023-06-14T12:39:16;4.90;;;2.63;;
17451;SDS011;8843;48.838;9.324;2023-06-14T12:41:45;4.47;;;3.03;;
17451;SDS011;8843;48.838;9.324;2023-06-14T12:44:12;3.83;;;3.13;;
17451;SDS011;8843;48.838;9.324;2023-06-14T12:46:40;3.93;;;3.03;;
17451;SDS011;8843;48.838;9.324;2023-06-14T12:49:08;4.07;;;3.67;;
17451;SDS011;8843;48.838;9.324;2023-06-14T12:51:36;4.17;;;3.47;;
17451;SDS011;8843;48.838;9.324;2023-06-14T12:54:03;4.10;;;3.60;;
17451;SDS011;8843;48.838;9.324;2023-06-14T12:56:30;6.00;;;3.37;;
17451;SDS011;8843;48.838;9.324;2023-06-14T12:58:59;4.33;;;3.07;;
17451;SDS011;8843;48.838;9.324;2023-06-14T13:01:26;5.10;;;3.17;;
17451;SDS011;8843;48.838;9.324;2023-06-14T13:03:53;3.60;;;3.30;;
17451;SDS011;8843;48.838;9.324;2023-06-14T13:06:20;4.77;;;3.20;;
17451;SDS011;8843;48.838;9.324;2023-06-14T13:08:47;4.47;;;3.27;;
17451;SDS011;8843;48.838;9.324;2023-06-14T13:11:15;9.60;;;3.87;;
17451;SDS011;8843;48.838;9.324;2023-06-14T13:13:42;6.33;;;3.33;;
17451;SDS011;8843;48.838;9.324;2023-06-14T13:16:10;5.03;;;3.20;;
17451;SDS011;8843;48.838;9.324;2023-06-14T13:18:39;3.83;;;2.90;;
17451;SDS011;8843;48.838;9.324;2023-06-14T13:21:06;5.70;;;3.20;;
17451;SDS011;8843;48.838;9.324;2023-06-14T13:23:33;5.93;;;3.03;;
17451;SDS011;8843;48.838;9.324;2023-06-14T13:25:59;5.20;;;3.27;;
17451;SDS011;8843;48.838;9.324;2023-06-14T13:28:26;3.60;;;3.27;;
17451;SDS011;8843;48.838;9.324;2023-06-14T13:30:53;5.20;;;3.00;;
17451;SDS011;8843;48.838;9.324;2023-06-14T13:33:22;3.37;;;3.07;;
17451;SDS011;8843;48.838;9.324;2023-06-14T13:35:49;4.27;;;2.97;;
17451;SDS011;8843;48.838;9.324;2023-06-14T13:38:17;4.77;;;3.43;;
17451;SDS011;8843;48.838;9.324;2023-06-14T13:40:44;8.00;;;3.57;;
17451;SDS011;8843;48.838;9.324;2023-06-14T13:43:11;4.30;;;3.10;;
17451;SDS011;8843;48.838;9.324;2023-06-14T13:45:38;3.60;;;3.30;;
17451;SDS011;8843;48.838;9.324;2023-06-14T13:48:05;4.67;;;3.83;;
17451;SDS011;8843;48.838;9.324;2023-06-14T13:50:33;4.00;;;3.40;;
17451;SDS011;8843;48.838;9.324;2023-06-14T13:53:00;6.03;;;3.60;;
17451;SDS011;8843;48.838;9.324;2023-06-14T13:55:28;4.47;;;3.50;;
17451;SDS011;8843;48.838;9.324;2023-06-14T13:57:55;3.77;;;2.90;;
17451;SDS011;8843;48.838;9.324;2023-06-14T14:00:22;8.00;;;3.23;;
17451;SDS011;8843;48.838;9.324;2023-06-14T14:02:50;5.00;;;3.37;;
17451;SDS011;8843;48.838;9.324;2023-06-14T14:05:16;5.30;;;3.50;;
17451;SDS011;8843;48.838;9.324;2023-06-14T14:07:46;4.33;;;3.07;;
17451;SDS011;8843;48.838;9.324;2023-06-14T14:10:13;10.67;;;3.60;;
17451;SDS011;8843;48.838;9.324;2023-06-14T14:12:40;4.47;;;2.73;;
17451;SDS011;8843;48.838;9.324;2023-06-14T14:15:07;4.00;;;3.23;;
17451;SDS011;8843;48.838;9.324;2023-06-14T14:17:37;3.50;;;2.83;;
17451;SDS011;8843;48.838;9.324;2023-06-14T14:20:05;4.47;;;2.90;;
17451;SDS011;8843;48.838;9.324;2023-06-14T14:22:32;5.13;;;3.10;;
17451;SDS011;8843;48.838;9.324;2023-06-14T14:25:01;5.80;;;3.53;;
17451;SDS011;8843;48.838;9.324;2023-06-14T14:27:28;5.00;;;3.77;;
17451;SDS011;8843;48.838;9.324;2023-06-14T14:29:55;4.43;;;3.70;;
17451;SDS011;8843;48.838;9.324;2023-06-14T14:32:21;4.97;;;3.73;;
17451;SDS011;8843;48.838;9.324;2023-06-14T14:34:48;5.37;;;3.30;;
17451;SDS011;8843;48.838;9.324;2023-06-14T14:37:15;6.60;;;3.80;;
17451;SDS011;8843;48.838;9.324;2023-06-14T14:39:43;5.53;;;3.30;;
17451;SDS011;8843;48.838;9.324;2023-06-14T14:42:13;4.33;;;3.10;;
17451;SDS011;8843;48.838;9.324;2023-06-14T14:44:40;6.73;;;3.13;;
17451;SDS011;8843;48.838;9.324;2023-06-14T14:47:06;6.27;;;3.20;;
17451;SDS011;8843;48.838;9.324;2023-06-14T14:49:34;7.47;;;3.10;;
17451;SDS011;8843;48.838;9.324;2023-06-14T14:52:00;5.93;;;3.20;;
17451;SDS011;8843;48.838;9.324;2023-06-14T14:54:27;7.37;;;3.40;;
17451;SDS011;8843;48.838;9.324;2023-06-14T14:56:55;3.93;;;3.53;;
17451;SDS011;8843;48.838;9.324;2023-06-14T14:59:23;5.83;;;3.07;;
17451;SDS011;8843;48.838;9.324;2023-06-14T15:01:50;4.83;;;3.27;;
17451;SDS011;8843;48.838;9.324;2023-06-14T15:04:17;4.40;;;3.50;;
17451;SDS011;8843;48.838;9.324;2023-06-14T15:06:44;3.73;;;3.20;;